createdAt,value
2019-01-29T00:01:14.549Z,45.97
2019-01-29T00:03:21.428Z,42.40
2019-01-29T00:05:27.768Z,43.53
2019-01-29T00:07:34.169Z,41.43
2019-01-29T00:09:40.669Z,43.57
2019-01-29T00:11:47.188Z,41.07
2019-01-29T00:13:53.488Z,40.60
2019-01-29T00:16:00.370Z,42.73
2019-01-29T00:18:06.668Z,40.80
2019-01-29T00:20:13.276Z,41.30
2019-01-29T00:22:20.339Z,41.20
2019-01-29T00:24:29.488Z,40.73
2019-01-29T00:26:36.468Z,39.73
2019-01-29T00:28:42.996Z,41.97
2019-01-29T00:30:49.448Z,39.40
2019-01-29T00:32:56.211Z,40.13
2019-01-29T00:35:02.476Z,40.43
2019-01-29T00:37:08.671Z,40.47
2019-01-29T00:39:15.011Z,40.87
2019-01-29T00:41:21.549Z,39.77
2019-01-29T00:43:28.277Z,42.40
2019-01-29T00:45:34.569Z,38.67
2019-01-29T00:47:41.368Z,39.47
2019-01-29T00:49:49.168Z,41.03
2019-01-29T00:51:56.471Z,40.87
2019-01-29T00:54:03.430Z,40.53
2019-01-29T00:56:09.949Z,39.13
2019-01-29T00:58:16.489Z,40.17
2019-01-29T01:00:24.928Z,39.40
2019-01-29T01:02:31.129Z,39.70
2019-01-29T01:04:38.248Z,38.93
2019-01-29T01:06:44.728Z,40.50
2019-01-29T01:08:53.469Z,38.17
2019-01-29T01:10:59.709Z,40.93
2019-01-29T01:13:08.028Z,39.57
2019-01-29T01:15:15.334Z,38.60
2019-01-29T01:17:22.208Z,38.87
2019-01-29T01:19:29.008Z,41.07
2019-01-29T01:21:35.388Z,41.17
2019-01-29T01:23:41.831Z,41.63
2019-01-29T01:25:48.756Z,41.50
2019-01-29T01:27:54.934Z,41.47
2019-01-29T01:30:01.430Z,39.57
2019-01-29T01:32:08.630Z,41.33
2019-01-29T01:34:17.729Z,37.97
2019-01-29T01:36:24.588Z,39.40
2019-01-29T01:38:31.127Z,38.03
2019-01-29T01:40:37.647Z,39.83
2019-01-29T01:42:44.171Z,39.83
2019-01-29T01:44:51.469Z,38.60
2019-01-29T01:46:58.548Z,41.50
2019-01-29T01:49:04.768Z,38.30
2019-01-29T01:51:11.170Z,40.30
2019-01-29T01:53:17.448Z,38.23
2019-01-29T01:55:23.808Z,39.40
2019-01-29T01:57:30.616Z,37.80
2019-01-29T01:59:36.708Z,38.93
2019-01-29T02:01:42.928Z,40.07
2019-01-29T02:03:52.728Z,39.60
2019-01-29T02:06:01.109Z,37.97
2019-01-29T02:08:13.889Z,37.60
2019-01-29T02:10:30.148Z,38.30
2019-01-29T02:12:37.208Z,37.30
2019-01-29T02:14:43.708Z,38.83
2019-01-29T02:16:51.628Z,40.13
2019-01-29T02:19:11.369Z,39.00
2019-01-29T02:21:18.571Z,39.60
2019-01-29T02:23:25.788Z,41.57
2019-01-29T02:25:31.871Z,40.47
2019-01-29T02:27:38.229Z,39.70
2019-01-29T02:29:45.568Z,39.40
2019-01-29T02:31:52.768Z,38.40
2019-01-29T02:33:59.828Z,37.47
2019-01-29T02:36:06.289Z,40.03
2019-01-29T02:38:13.311Z,39.10
2019-01-29T02:40:22.828Z,40.27
2019-01-29T02:42:35.109Z,39.50
2019-01-29T02:44:42.908Z,39.67
2019-01-29T02:46:54.828Z,38.03
2019-01-29T02:49:17.999Z,44.57
2019-01-29T02:51:32.908Z,39.20
2019-01-29T02:53:40.328Z,39.93
2019-01-29T02:55:46.468Z,40.27
2019-01-29T02:57:52.694Z,40.30
2019-01-29T02:59:59.368Z,42.50
2019-01-29T03:02:07.409Z,40.57
2019-01-29T03:07:39.368Z,40.20
2019-01-29T03:09:46.248Z,40.63
2019-01-29T03:11:52.547Z,39.20
2019-01-29T03:14:02.748Z,42.67
2019-01-29T03:16:09.129Z,45.27
2019-01-29T03:18:15.527Z,47.77
2019-01-29T03:20:21.908Z,47.27
2019-01-29T03:22:28.231Z,43.37
2019-01-29T03:24:34.669Z,40.27
2019-01-29T03:26:41.167Z,42.70
2019-01-29T03:28:47.610Z,40.20
2019-01-29T03:30:53.889Z,39.07
2019-01-29T03:33:00.070Z,41.40
2019-01-29T03:35:08.827Z,42.93
2019-01-29T03:37:15.908Z,40.53
2019-01-29T03:39:23.989Z,42.37
2019-01-29T03:41:31.388Z,41.37
2019-01-29T03:43:38.528Z,38.97
2019-01-29T03:45:54.789Z,42.10
2019-01-29T03:48:05.888Z,41.30
2019-01-29T03:50:18.410Z,39.23
2019-01-29T03:52:25.713Z,39.27
2019-01-29T03:54:32.169Z,41.00
2019-01-29T03:56:38.470Z,40.07
2019-01-29T03:58:45.289Z,41.10
2019-01-29T04:00:52.047Z,40.40
2019-01-29T04:02:58.667Z,41.20
2019-01-29T04:05:06.149Z,39.23
2019-01-29T04:07:12.555Z,37.83
2019-01-29T04:09:18.948Z,39.83
2019-01-29T04:11:26.588Z,42.30
2019-01-29T04:13:33.189Z,41.23
2019-01-29T04:15:40.271Z,39.77
2019-01-29T04:17:47.208Z,40.03
2019-01-29T04:19:53.609Z,41.50
2019-01-29T04:22:00.001Z,39.20
2019-01-29T04:24:08.308Z,38.37
2019-01-29T04:26:22.028Z,39.20
2019-01-29T04:28:33.908Z,39.07
2019-01-29T04:30:46.910Z,38.83
2019-01-29T04:32:53.069Z,38.53
2019-01-29T04:35:01.769Z,40.07
2019-01-29T04:37:08.888Z,38.90
2019-01-29T04:39:15.248Z,39.03
2019-01-29T04:41:21.610Z,41.80
2019-01-29T04:43:29.328Z,45.23
2019-01-29T04:45:35.539Z,60.30
2019-01-29T04:47:42.054Z,73.43
2019-01-29T04:49:48.651Z,82.77
2019-01-29T04:51:56.208Z,82.37
2019-01-29T04:54:02.407Z,69.90
2019-01-29T04:56:09.228Z,61.53
2019-01-29T04:58:15.273Z,50.90
2019-01-29T05:00:26.842Z,45.87
2019-01-29T05:02:33.169Z,47.67
2019-01-29T05:04:41.210Z,43.70
2019-01-29T05:06:49.748Z,43.83
2019-01-29T05:08:56.408Z,44.57
2019-01-29T05:11:03.848Z,43.33
2019-01-29T05:13:10.269Z,45.53
2019-01-29T05:15:19.439Z,41.83
2019-01-29T05:17:26.948Z,42.10
2019-01-29T05:19:34.407Z,42.93
2019-01-29T05:21:41.948Z,43.83
2019-01-29T05:23:49.899Z,43.17
2019-01-29T05:25:56.368Z,39.60
2019-01-29T05:28:03.088Z,41.00
2019-01-29T05:30:16.889Z,41.73
2019-01-29T05:32:25.399Z,40.77
2019-01-29T05:34:32.154Z,42.03
2019-01-29T05:36:38.468Z,42.27
2019-01-29T05:38:45.149Z,42.93
2019-01-29T05:40:53.320Z,41.80
2019-01-29T05:43:00.428Z,41.53
2019-01-29T05:45:12.618Z,41.23
2019-01-29T05:47:20.171Z,44.23
2019-01-29T05:49:26.636Z,39.33
2019-01-29T05:51:33.393Z,40.67
2019-01-29T05:53:39.768Z,42.33
2019-01-29T05:55:46.250Z,50.00
2019-01-29T05:57:52.750Z,51.77
2019-01-29T05:59:59.088Z,53.20
2019-01-29T06:02:05.771Z,55.47
2019-01-29T06:04:12.268Z,50.13
2019-01-29T06:06:20.156Z,42.80
2019-01-29T06:10:57.868Z,41.87
2019-01-29T06:13:07.349Z,38.73
2019-01-29T06:15:25.548Z,38.70
2019-01-29T06:17:32.071Z,41.13
2019-01-29T06:19:43.931Z,44.50
2019-01-29T06:21:56.532Z,47.07
2019-01-29T06:24:02.929Z,41.30
2019-01-29T06:26:09.468Z,40.13
2019-01-29T06:28:18.828Z,40.00
2019-01-29T06:30:26.808Z,37.97
2019-01-29T06:32:34.129Z,34.87
2019-01-29T06:34:41.907Z,37.20
2019-01-29T06:36:50.924Z,36.97
2019-01-29T06:39:00.208Z,35.70
2019-01-29T06:41:06.730Z,36.40
2019-01-29T06:43:12.950Z,39.27
2019-01-29T06:45:23.429Z,39.87
2019-01-29T06:47:30.849Z,40.17
2019-01-29T06:49:40.388Z,40.97
2019-01-29T06:51:48.490Z,38.03
2019-01-29T06:53:55.309Z,40.37
2019-01-29T06:56:09.767Z,33.73
2019-01-29T06:58:20.654Z,35.10
2019-01-29T07:00:31.990Z,35.77
2019-01-29T07:02:38.069Z,38.57
2019-01-29T07:04:44.640Z,50.70
2019-01-29T07:06:51.029Z,44.33
2019-01-29T07:08:58.168Z,41.63
2019-01-29T07:11:04.488Z,45.93
2019-01-29T07:13:11.328Z,38.47
2019-01-29T07:15:45.288Z,38.73
2019-01-29T07:17:51.628Z,37.07
2019-01-29T07:19:57.929Z,33.33
2019-01-29T07:22:05.188Z,37.03
2019-01-29T07:24:12.331Z,37.20
2019-01-29T07:26:19.395Z,41.60
2019-01-29T07:28:27.330Z,45.20
2019-01-29T07:30:36.946Z,71.10
2019-01-29T07:32:43.392Z,51.07
2019-01-29T07:34:50.306Z,37.40
2019-01-29T07:36:56.608Z,40.97
2019-01-29T07:39:04.871Z,31.67
2019-01-29T07:41:11.428Z,33.63
2019-01-29T07:43:17.748Z,30.60
2019-01-29T07:45:25.192Z,30.73
2019-01-29T07:47:32.369Z,30.57
2019-01-29T07:49:38.868Z,31.00
2019-01-29T07:51:46.408Z,29.53
2019-01-29T07:53:52.748Z,31.47
2019-01-29T07:55:59.048Z,29.70
2019-01-29T07:58:07.070Z,33.93
2019-01-29T08:00:18.429Z,32.10
2019-01-29T08:02:25.688Z,41.63
2019-01-29T08:04:31.984Z,44.87
2019-01-29T08:06:41.689Z,30.57
2019-01-29T08:08:49.332Z,31.13
2019-01-29T08:10:55.568Z,33.23
2019-01-29T08:13:01.809Z,31.20
2019-01-29T08:15:12.430Z,31.43
2019-01-29T08:17:19.369Z,34.73
2019-01-29T08:19:27.468Z,32.03
2019-01-29T08:21:33.749Z,35.17
2019-01-29T08:23:40.091Z,36.03
2019-01-29T08:25:47.801Z,42.03
2019-01-29T08:27:58.449Z,43.30
2019-01-29T08:30:06.308Z,35.53
2019-01-29T08:32:12.909Z,43.37
2019-01-29T08:34:19.204Z,76.37
2019-01-29T08:36:25.508Z,46.53
2019-01-29T08:38:31.889Z,39.13
2019-01-29T08:40:38.248Z,42.53
2019-01-29T08:42:44.568Z,39.73
2019-01-29T08:44:50.669Z,38.17
2019-01-29T08:46:56.989Z,38.77
2019-01-29T08:49:03.250Z,32.80
2019-01-29T08:51:09.649Z,38.23
2019-01-29T08:53:17.108Z,35.40
2019-01-29T08:55:23.529Z,40.10
2019-01-29T08:57:30.088Z,37.37
2019-01-29T08:59:36.409Z,39.10
2019-01-29T09:01:44.249Z,36.23
2019-01-29T09:03:50.548Z,39.83
2019-01-29T09:05:57.388Z,40.57
2019-01-29T09:08:04.148Z,40.03
2019-01-29T09:10:17.088Z,37.97
2019-01-29T09:12:23.468Z,36.67
2019-01-29T09:14:30.012Z,34.40
2019-01-29T09:16:36.189Z,31.73
2019-01-29T09:18:42.688Z,36.57
2019-01-29T09:20:49.292Z,35.57
2019-01-29T09:22:57.430Z,35.73
2019-01-29T09:25:04.193Z,33.73
2019-01-29T09:27:10.489Z,33.30
2019-01-29T09:29:17.862Z,33.93
2019-01-29T09:31:24.508Z,33.50
2019-01-29T09:33:31.591Z,31.77
2019-01-29T09:35:37.889Z,32.87
2019-01-29T09:37:44.496Z,32.50
2019-01-29T09:39:51.369Z,32.60
2019-01-29T09:41:58.008Z,32.37
2019-01-29T09:44:04.530Z,33.73
2019-01-29T09:46:10.848Z,33.13
2019-01-29T09:48:18.168Z,35.30
2019-01-29T09:50:29.429Z,34.07
2019-01-29T09:52:36.049Z,84.73
2019-01-29T09:54:42.807Z,42.63
2019-01-29T09:56:49.759Z,41.07
2019-01-29T09:58:56.308Z,232.63
2019-01-29T10:01:02.728Z,60.70
2019-01-29T10:03:09.049Z,41.03
2019-01-29T10:05:15.868Z,29.73
2019-01-29T10:07:23.468Z,30.87
2019-01-29T10:09:29.675Z,31.00
2019-01-29T10:11:35.873Z,30.80
2019-01-29T10:13:42.049Z,29.40
2019-01-29T10:15:48.368Z,28.57
2019-01-29T10:17:54.988Z,27.87
2019-01-29T10:20:02.783Z,26.37
2019-01-29T10:22:10.788Z,29.10
2019-01-29T10:24:17.248Z,31.70
2019-01-29T10:26:23.869Z,27.73
2019-01-29T10:28:30.255Z,29.60
2019-01-29T10:30:38.988Z,26.90
2019-01-29T10:32:45.268Z,25.83
2019-01-29T10:34:51.690Z,24.77
2019-01-29T10:36:58.428Z,25.47
2019-01-29T10:39:07.088Z,23.33
2019-01-29T10:41:13.388Z,24.37
2019-01-29T10:43:19.812Z,21.97
2019-01-29T10:45:28.849Z,24.20
2019-01-29T10:47:36.069Z,21.77
2019-01-29T10:49:42.449Z,21.80
2019-01-29T10:51:49.250Z,21.07
2019-01-29T10:53:55.934Z,20.13
2019-01-29T10:56:03.714Z,35.63
2019-01-29T10:58:11.830Z,59.47
2019-01-29T11:00:26.434Z,24.60
2019-01-29T11:02:32.970Z,65.73
2019-01-29T11:04:39.275Z,57.37
2019-01-29T11:06:45.710Z,21.07
2019-01-29T11:08:52.933Z,35.13
2019-01-29T11:10:59.226Z,43.87
2019-01-29T11:13:07.387Z,34.27
2019-01-29T11:15:21.410Z,20.03
2019-01-29T11:17:28.012Z,17.70
2019-01-29T11:19:34.564Z,18.63
2019-01-29T11:21:41.453Z,23.13
2019-01-29T11:23:49.111Z,77.33
2019-01-29T11:25:56.245Z,26.47
2019-01-29T11:28:03.533Z,17.07
2019-01-29T11:30:14.837Z,17.83
2019-01-29T11:32:21.352Z,18.37
2019-01-29T11:34:27.951Z,14.17
2019-01-29T11:36:35.110Z,16.60
2019-01-29T11:38:41.991Z,18.83
2019-01-29T11:40:48.770Z,22.93
2019-01-29T11:42:55.050Z,123.90
2019-01-29T11:45:02.211Z,18.57
2019-01-29T11:47:08.498Z,22.30
2019-01-29T11:49:15.330Z,17.20
2019-01-29T11:51:22.151Z,31.37
2019-01-29T11:53:28.453Z,43.83
2019-01-29T11:55:34.471Z,24.23
2019-01-29T11:57:41.031Z,16.27
2019-01-29T11:59:47.269Z,17.27
2019-01-29T12:01:53.708Z,13.27
2019-01-29T12:04:00.168Z,15.17
2019-01-29T12:06:06.489Z,10.33
2019-01-29T12:08:13.008Z,13.50
2019-01-29T12:10:20.068Z,13.10
2019-01-29T12:12:27.591Z,12.40
2019-01-29T12:14:34.050Z,12.60
2019-01-29T12:16:40.150Z,12.53
2019-01-29T12:18:46.385Z,14.03
2019-01-29T12:20:56.090Z,11.97
2019-01-29T12:23:02.861Z,13.77
2019-01-29T12:25:09.117Z,15.07
2019-01-29T12:27:15.653Z,11.80
2019-01-29T12:29:25.296Z,12.73
2019-01-29T12:31:31.950Z,12.23
2019-01-29T12:33:38.750Z,10.57
2019-01-29T12:35:45.091Z,10.33
2019-01-29T12:37:51.777Z,12.03
2019-01-29T12:39:57.982Z,9.83
2019-01-29T12:42:04.441Z,12.40
2019-01-29T12:44:12.033Z,20.03
2019-01-29T12:46:18.476Z,45.73
2019-01-29T12:48:25.115Z,12.30
2019-01-29T12:50:33.390Z,15.87
2019-01-29T12:52:42.111Z,13.30
2019-01-29T12:54:50.370Z,9.37
2019-01-29T12:56:57.548Z,10.17
2019-01-29T12:59:03.785Z,8.97
2019-01-29T13:01:18.608Z,7.33
2019-01-29T13:03:25.568Z,7.77
2019-01-29T13:05:32.780Z,8.07
2019-01-29T13:07:39.408Z,7.07
2019-01-29T13:09:45.836Z,7.83
2019-01-29T13:11:53.668Z,6.87
2019-01-29T13:14:00.169Z,6.93
2019-01-29T13:16:08.609Z,8.73
2019-01-29T13:18:15.932Z,14.97
2019-01-29T13:20:22.233Z,11.03
2019-01-29T13:22:28.628Z,9.23
2019-01-29T13:24:35.228Z,7.87
2019-01-29T13:26:43.408Z,7.43
2019-01-29T13:28:49.908Z,9.63
2019-01-29T13:30:56.590Z,18.43
2019-01-29T13:33:02.790Z,11.90
2019-01-29T13:35:11.473Z,10.67
2019-01-29T13:37:18.052Z,49.27
2019-01-29T13:39:24.469Z,8.53
2019-01-29T13:41:30.955Z,16.90
2019-01-29T13:43:37.309Z,5.63
2019-01-29T13:45:43.969Z,5.73
2019-01-29T13:47:50.559Z,13.73
2019-01-29T13:49:56.855Z,12.10
2019-01-29T13:52:04.148Z,7.57
2019-01-29T13:54:11.689Z,31.93
2019-01-29T13:56:20.332Z,50.03
2019-01-29T13:58:28.704Z,10.47
2019-01-29T14:00:37.438Z,37.83
2019-01-29T14:02:43.570Z,7.47
2019-01-29T14:04:51.811Z,12.47
2019-01-29T14:06:59.651Z,5.57
2019-01-29T14:09:08.871Z,6.23
2019-01-29T14:11:15.274Z,4.70
2019-01-29T14:13:21.871Z,8.03
2019-01-29T14:15:31.794Z,4.67
2019-01-29T14:17:38.491Z,6.00
2019-01-29T14:19:45.409Z,7.10
2019-01-29T14:21:51.648Z,5.53
2019-01-29T14:23:57.928Z,17.57
2019-01-29T14:26:04.313Z,11.93
2019-01-29T14:28:14.693Z,5.67
2019-01-29T14:30:31.488Z,6.80
2019-01-29T14:32:39.472Z,13.10
2019-01-29T14:34:46.031Z,7.23
2019-01-29T14:36:52.112Z,6.83
2019-01-29T14:39:21.610Z,4.73
2019-01-29T14:41:28.291Z,9.57
2019-01-29T14:43:39.199Z,39.53
2019-01-29T14:45:45.776Z,57.90
2019-01-29T14:47:52.936Z,54.57
2019-01-29T14:49:59.491Z,32.67
2019-01-29T14:52:06.349Z,22.30
2019-01-29T14:54:13.437Z,12.13
2019-01-29T14:56:20.929Z,9.33
2019-01-29T14:58:27.288Z,10.67
2019-01-29T15:00:37.638Z,24.87
2019-01-29T15:02:44.671Z,16.97
2019-01-29T15:04:51.859Z,15.33
2019-01-29T15:06:59.557Z,15.67
2019-01-29T15:09:08.631Z,17.77
2019-01-29T15:11:17.340Z,20.23
2019-01-29T15:13:23.794Z,12.83
2019-01-29T15:15:35.061Z,20.40
2019-01-29T15:17:43.701Z,15.50
2019-01-29T15:19:50.474Z,18.83
2019-01-29T15:21:56.668Z,8.70
2019-01-29T15:24:05.188Z,12.63
2019-01-29T15:26:12.069Z,10.13
2019-01-29T15:28:18.810Z,8.60
2019-01-29T15:30:30.529Z,9.20
2019-01-29T15:32:37.117Z,47.67
2019-01-29T15:34:44.549Z,95.90
2019-01-29T15:36:50.908Z,18.27
2019-01-29T15:38:57.328Z,80.70
2019-01-29T15:41:04.368Z,18.97
2019-01-29T15:43:10.708Z,10.90
2019-01-29T15:45:26.310Z,9.97
2019-01-29T15:47:32.989Z,7.47
2019-01-29T15:49:39.684Z,14.07
2019-01-29T15:51:46.388Z,8.17
2019-01-29T15:53:52.668Z,8.13
2019-01-29T15:56:00.269Z,8.57
2019-01-29T15:58:07.268Z,6.60
2019-01-29T16:00:35.808Z,7.43
2019-01-29T16:02:42.910Z,6.40
2019-01-29T16:04:50.009Z,9.10
2019-01-29T16:06:56.124Z,8.10
2019-01-29T16:09:02.600Z,8.30
2019-01-29T16:11:11.072Z,7.83
2019-01-29T16:13:18.128Z,7.63
2019-01-29T16:15:26.488Z,8.90
2019-01-29T16:17:32.877Z,8.80
2019-01-29T16:19:39.194Z,7.43
2019-01-29T16:21:45.910Z,8.57
2019-01-29T16:23:52.438Z,8.23
2019-01-29T16:25:59.069Z,9.27
2019-01-29T16:28:06.548Z,14.03
2019-01-29T16:30:31.545Z,8.33
2019-01-29T16:32:38.368Z,9.53
2019-01-29T16:34:45.468Z,14.50
2019-01-29T16:36:52.927Z,18.57
2019-01-29T16:38:59.548Z,14.50
2019-01-29T16:41:06.129Z,10.73
2019-01-29T16:43:12.629Z,8.50
2019-01-29T16:45:26.408Z,8.20
2019-01-29T16:47:35.042Z,7.70
2019-01-29T16:49:41.268Z,7.10
2019-01-29T16:51:47.777Z,7.37
2019-01-29T16:53:54.448Z,6.50
2019-01-29T16:56:02.612Z,10.93
2019-01-29T16:58:09.511Z,13.70
2019-01-29T17:00:32.409Z,12.20
2019-01-29T17:02:38.968Z,8.50
2019-01-29T17:04:45.409Z,10.10
2019-01-29T17:06:51.887Z,9.83
2019-01-29T17:08:58.510Z,13.80
2019-01-29T17:11:05.888Z,10.80
2019-01-29T17:13:12.648Z,8.13
2019-01-29T17:15:31.588Z,19.47
2019-01-29T17:17:37.978Z,13.43
2019-01-29T17:19:44.769Z,12.10
2019-01-29T17:21:51.711Z,13.13
2019-01-29T17:23:58.278Z,10.07
2019-01-29T17:26:04.618Z,12.90
2019-01-29T17:28:10.989Z,16.20
2019-01-29T17:30:45.240Z,22.73
2019-01-29T17:32:51.908Z,21.50
2019-01-29T17:34:58.540Z,14.73
2019-01-29T17:37:05.135Z,13.60
2019-01-29T17:39:11.668Z,17.27
2019-01-29T17:41:19.589Z,12.33
2019-01-29T17:43:25.988Z,10.27
2019-01-29T17:45:43.188Z,10.53
2019-01-29T17:47:51.289Z,9.67
2019-01-29T17:49:59.038Z,13.73
2019-01-29T17:52:05.592Z,16.60
2019-01-29T17:54:13.615Z,20.50
2019-01-29T17:56:20.448Z,20.13
2019-01-29T17:58:27.450Z,14.33
2019-01-29T18:00:35.729Z,16.00
2019-01-29T18:02:42.855Z,22.80
2019-01-29T18:04:52.253Z,24.20
2019-01-29T18:07:00.793Z,23.13
2019-01-29T18:09:09.675Z,39.23
2019-01-29T18:11:16.568Z,23.80
2019-01-29T18:13:23.468Z,36.33
2019-01-29T18:15:33.438Z,37.20
2019-01-29T18:17:40.188Z,38.80
2019-01-29T18:19:47.136Z,14.37
2019-01-29T18:21:56.939Z,15.07
2019-01-29T18:24:03.336Z,14.30
2019-01-29T18:26:10.436Z,22.57
2019-01-29T18:30:46.581Z,26.97
2019-01-29T18:32:53.358Z,18.03
2019-01-29T18:35:00.549Z,15.83
2019-01-29T18:37:07.255Z,13.63
2019-01-29T18:39:14.146Z,18.30
2019-01-29T18:41:20.948Z,10.70
2019-01-29T18:43:27.867Z,11.43
2019-01-29T18:45:35.988Z,9.17
2019-01-29T18:47:42.728Z,9.47
2019-01-29T18:49:51.072Z,9.60
2019-01-29T18:51:58.009Z,11.00
2019-01-29T18:54:05.429Z,12.40
2019-01-29T18:56:12.608Z,10.50
2019-01-29T18:58:21.009Z,10.80
2019-01-29T19:00:27.938Z,11.10
2019-01-29T19:02:35.888Z,11.03
2019-01-29T19:04:42.609Z,9.87
2019-01-29T19:06:50.557Z,8.87
2019-01-29T19:08:57.353Z,9.33
2019-01-29T19:11:04.415Z,10.13
2019-01-29T19:13:11.269Z,9.67
2019-01-29T19:15:23.330Z,10.13
2019-01-29T19:17:30.242Z,10.43
2019-01-29T19:19:36.930Z,10.83
2019-01-29T19:21:44.169Z,11.30
2019-01-29T19:23:51.128Z,13.40
2019-01-29T19:25:57.935Z,22.53
2019-01-29T19:28:04.729Z,16.93
2019-01-29T19:30:23.041Z,14.13
2019-01-29T19:32:31.388Z,20.83
2019-01-29T19:34:38.448Z,51.70
2019-01-29T19:36:45.074Z,16.13
2019-01-29T19:38:51.969Z,16.67
2019-01-29T19:40:58.789Z,13.80
2019-01-29T19:43:06.768Z,12.73
2019-01-29T19:45:26.475Z,13.40
2019-01-29T19:47:33.343Z,12.20
2019-01-29T19:49:40.128Z,19.93
2019-01-29T19:51:49.629Z,21.90
2019-01-29T19:53:56.041Z,23.73
2019-01-29T19:56:02.971Z,23.67
2019-01-29T19:58:10.039Z,24.33
2019-01-29T20:00:21.409Z,28.20
2019-01-29T20:02:28.248Z,42.07
2019-01-29T20:04:35.000Z,30.90
2019-01-29T20:06:41.308Z,19.10
2019-01-29T20:08:48.108Z,14.83
2019-01-29T20:10:55.068Z,14.33
2019-01-29T20:13:01.868Z,10.27
2019-01-29T20:15:12.648Z,23.17
2019-01-29T20:17:19.608Z,18.40
2019-01-29T20:19:26.090Z,14.20
2019-01-29T20:21:33.129Z,10.27
2019-01-29T20:23:41.328Z,10.87
2019-01-29T20:25:49.089Z,9.70
2019-01-29T20:27:55.673Z,12.20
2019-01-29T20:30:02.757Z,12.27
2019-01-29T20:32:09.188Z,10.77
2019-01-29T20:34:16.669Z,9.07
2019-01-29T20:36:23.494Z,9.13
2019-01-29T20:38:35.187Z,14.33
2019-01-29T20:40:39.055Z,11.53
2019-01-29T20:42:46.336Z,10.43
2019-01-29T20:44:53.168Z,9.27
2019-01-29T20:46:59.866Z,8.73
2019-01-29T20:49:06.528Z,9.13
2019-01-29T20:51:13.388Z,9.63
2019-01-29T20:53:20.229Z,10.23
2019-01-29T20:55:27.156Z,9.13
2019-01-29T20:57:34.089Z,9.87
2019-01-29T20:59:41.172Z,9.53
2019-01-29T21:01:48.948Z,12.87
2019-01-29T21:03:55.769Z,13.70
2019-01-29T21:06:03.529Z,12.27
2019-01-29T21:08:10.471Z,15.27
2019-01-29T21:10:26.271Z,16.83
2019-01-29T21:12:34.397Z,23.13
2019-01-29T21:14:41.890Z,20.77
2019-01-29T21:16:50.108Z,16.57
2019-01-29T21:18:56.802Z,15.27
2019-01-29T21:21:03.788Z,17.27
2019-01-29T21:23:10.969Z,16.97
2019-01-29T21:25:17.988Z,17.03
2019-01-29T21:27:25.110Z,16.70
2019-01-29T21:29:31.868Z,17.13
2019-01-29T21:31:40.401Z,17.20
2019-01-29T21:33:47.048Z,18.60
2019-01-29T21:35:53.728Z,15.80
2019-01-29T21:38:00.356Z,16.53
2019-01-29T21:40:13.397Z,16.40
2019-01-29T21:42:22.090Z,15.57
2019-01-29T21:44:28.649Z,19.20
2019-01-29T21:46:35.072Z,21.90
2019-01-29T21:48:41.950Z,16.20
2019-01-29T21:50:48.809Z,15.00
2019-01-29T21:52:55.576Z,17.17
2019-01-29T21:55:02.909Z,20.43
2019-01-29T21:57:10.029Z,16.80
2019-01-29T21:59:16.388Z,14.83
2019-01-29T22:01:23.068Z,14.63
2019-01-29T22:03:29.288Z,12.40
2019-01-29T22:05:36.767Z,12.17
2019-01-29T22:07:43.268Z,12.73
2019-01-29T22:09:49.548Z,13.23
2019-01-29T22:11:56.189Z,13.93
2019-01-29T22:14:12.328Z,12.60
2019-01-29T22:16:19.429Z,11.20
2019-01-29T22:18:25.868Z,19.43
2019-01-29T22:20:33.431Z,27.90
2019-01-29T22:22:42.108Z,18.30
2019-01-29T22:24:48.368Z,12.83
2019-01-29T22:26:55.689Z,13.40
2019-01-29T22:29:02.048Z,14.50
2019-01-29T22:31:08.308Z,12.33
2019-01-29T22:33:16.109Z,10.40
2019-01-29T22:35:22.389Z,11.57
2019-01-29T22:37:28.768Z,12.10
2019-01-29T22:39:35.708Z,11.13
2019-01-29T22:41:42.068Z,12.47
2019-01-29T22:43:50.268Z,11.27
2019-01-29T22:45:56.648Z,11.87
2019-01-29T22:48:04.662Z,10.97
2019-01-29T22:50:16.088Z,12.40
2019-01-29T22:52:22.668Z,12.03
2019-01-29T22:54:28.908Z,11.90
2019-01-29T22:56:35.730Z,10.87
2019-01-29T22:58:43.728Z,11.47
2019-01-29T23:01:09.528Z,11.40
2019-01-29T23:03:17.728Z,11.00
2019-01-29T23:05:25.213Z,11.50
2019-01-29T23:07:32.848Z,10.97
2019-01-29T23:09:40.148Z,12.00
2019-01-29T23:11:47.311Z,11.30
2019-01-29T23:13:53.808Z,11.57
2019-01-29T23:16:00.310Z,11.97
2019-01-29T23:18:07.688Z,10.77
2019-01-29T23:20:17.149Z,12.80
2019-01-29T23:22:23.930Z,11.47
2019-01-29T23:24:31.988Z,11.33
2019-01-29T23:26:38.308Z,10.97
2019-01-29T23:28:44.588Z,11.17
2019-01-29T23:30:50.968Z,11.83
2019-01-29T23:32:57.289Z,11.50
2019-01-29T23:35:05.749Z,11.53
2019-01-29T23:37:12.228Z,11.30
2019-01-29T23:39:20.090Z,12.03
2019-01-29T23:41:29.361Z,10.93
2019-01-29T23:43:35.789Z,10.93
2019-01-29T23:45:42.151Z,11.50
2019-01-29T23:47:49.910Z,10.73
2019-01-29T23:49:57.089Z,10.73
2019-01-29T23:52:04.249Z,10.27
2019-01-29T23:54:10.672Z,10.93
2019-01-29T23:56:17.329Z,11.87
2019-01-29T23:58:24.668Z,10.03
